createdAt,value
2019-03-25T00:02:51.749Z,1.94
2019-03-25T00:12:51.641Z,2.32
2019-03-25T00:22:51.683Z,2.51
2019-03-25T00:32:51.667Z,2.38
2019-03-25T00:42:51.573Z,2.75
2019-03-25T00:52:51.603Z,2.31
2019-03-25T01:02:51.573Z,2.49
2019-03-25T01:12:51.580Z,2.77
2019-03-25T01:22:51.556Z,2.55
2019-03-25T01:32:51.606Z,2.61
2019-03-25T01:42:51.638Z,3.20
2019-03-25T01:52:51.662Z,2.83
2019-03-25T02:02:51.535Z,3.06
2019-03-25T02:12:51.619Z,3.37
2019-03-25T02:22:52.661Z,3.48
2019-03-25T02:32:51.642Z,3.19
2019-03-25T02:42:51.604Z,3.01
2019-03-25T02:52:51.997Z,3.52
2019-03-25T03:02:54.016Z,2.96
2019-03-25T03:12:51.617Z,2.97
2019-03-25T03:22:51.549Z,3.39
2019-03-25T03:32:51.629Z,2.60
2019-03-25T03:42:51.667Z,2.32
2019-03-25T03:52:51.628Z,3.46
2019-03-25T04:02:51.547Z,2.90
2019-03-25T04:12:51.570Z,2.82
2019-03-25T04:22:52.232Z,3.27
2019-03-25T04:32:51.650Z,3.46
2019-03-25T04:42:51.609Z,3.15
2019-03-25T04:52:51.668Z,2.38
2019-03-25T05:02:51.624Z,2.50
2019-03-25T05:12:51.624Z,1.88
2019-03-25T05:22:51.587Z,2.30
2019-03-25T05:32:51.631Z,1.83
2019-03-25T05:42:51.542Z,2.26
2019-03-25T05:52:51.538Z,1.99
2019-03-25T06:02:52.442Z,2.34
2019-03-25T06:12:54.302Z,2.21
2019-03-25T06:22:51.414Z,2.29
2019-03-25T06:32:51.718Z,1.92
2019-03-25T06:42:53.473Z,2.03
2019-03-25T06:52:51.663Z,1.70
2019-03-25T07:02:51.707Z,1.38
2019-03-25T07:12:51.663Z,1.88
2019-03-25T07:22:51.656Z,1.99
2019-03-25T07:32:51.669Z,2.44
2019-03-25T07:42:51.593Z,3.17
2019-03-25T07:52:53.675Z,2.25
2019-03-25T08:02:51.758Z,2.92
2019-03-25T08:12:51.756Z,2.27
2019-03-25T08:22:53.637Z,2.90
2019-03-25T08:32:53.647Z,2.26
2019-03-25T08:42:51.742Z,2.08
2019-03-25T08:52:51.587Z,2.88
2019-03-25T09:02:52.270Z,2.69
2019-03-25T09:12:51.990Z,1.73
2019-03-25T09:22:51.658Z,2.17
2019-03-25T09:32:52.703Z,1.87
2019-03-25T09:42:51.814Z,1.96
2019-03-25T09:52:52.362Z,2.52
2019-03-25T10:02:51.806Z,2.22
2019-03-25T10:12:51.691Z,1.95
2019-03-25T10:22:52.235Z,1.82
2019-03-25T10:32:52.023Z,2.17
2019-03-25T10:42:51.507Z,2.70
2019-03-25T10:52:51.609Z,2.37
2019-03-25T11:02:51.710Z,2.07
2019-03-25T11:12:51.627Z,1.72
2019-03-25T11:22:51.562Z,2.02
2019-03-25T11:32:51.487Z,1.92
2019-03-25T11:42:51.566Z,2.75
2019-03-25T11:52:52.535Z,1.96
2019-03-25T12:02:52.567Z,2.28
2019-03-25T12:12:51.549Z,1.68
2019-03-25T12:22:52.585Z,3.04
2019-03-25T12:32:51.628Z,2.80
2019-03-25T12:42:51.536Z,1.80
2019-03-25T12:52:51.784Z,2.10
2019-03-25T13:02:51.692Z,1.91
2019-03-25T13:12:52.708Z,2.48
2019-03-25T13:22:51.546Z,2.46
2019-03-25T13:32:52.735Z,2.25
2019-03-25T13:42:51.719Z,2.43
2019-03-25T13:52:54.963Z,1.52
2019-03-25T14:02:51.585Z,1.69
2019-03-25T14:12:52.145Z,2.29
2019-03-25T14:22:51.642Z,1.83
2019-03-25T14:32:51.562Z,2.00
2019-03-25T14:42:51.656Z,2.37
2019-03-25T14:52:51.712Z,2.07
2019-03-25T15:02:51.715Z,2.75
2019-03-25T15:12:51.570Z,1.87
2019-03-25T15:22:51.547Z,2.26
2019-03-25T15:32:51.714Z,2.21
2019-03-25T15:42:51.668Z,2.33
2019-03-25T15:52:51.703Z,2.37
2019-03-25T16:02:51.663Z,1.87
2019-03-25T16:12:51.714Z,1.59
2019-03-25T16:22:51.546Z,1.90
2019-03-25T16:32:51.586Z,1.18
2019-03-25T16:42:51.889Z,1.32
2019-03-25T16:52:51.597Z,0.93
2019-03-25T17:02:51.542Z,1.11
2019-03-25T17:12:51.502Z,1.76
2019-03-25T17:22:52.487Z,1.54
2019-03-25T17:32:51.686Z,1.43
2019-03-25T17:42:51.526Z,1.11
2019-03-25T17:52:52.634Z,1.06
2019-03-25T18:02:51.561Z,0.84
2019-03-25T18:12:51.501Z,0.82
2019-03-25T18:22:51.500Z,1.11
2019-03-25T18:32:51.538Z,0.64
2019-03-25T18:42:52.124Z,0.65
2019-03-25T18:52:51.749Z,0.77
2019-03-25T19:02:51.507Z,0.83
2019-03-25T19:12:51.508Z,0.27
2019-03-25T19:22:51.567Z,0.37
2019-03-25T19:32:51.529Z,0.90
2019-03-25T19:42:51.487Z,1.00
2019-03-25T19:52:51.603Z,0.93
2019-03-25T20:02:51.505Z,1.14
2019-03-25T20:12:51.499Z,0.75
2019-03-25T20:22:51.535Z,1.32
2019-03-25T20:32:51.568Z,0.83
2019-03-25T20:42:51.595Z,0.49
2019-03-25T20:52:51.592Z,0.74
2019-03-25T21:02:53.445Z,0.32
2019-03-25T21:12:51.547Z,0.49
2019-03-25T21:22:52.410Z,0.57
2019-03-25T21:32:58.255Z,0.70
2019-03-25T21:42:51.556Z,0.71
2019-03-25T21:52:51.545Z,0.54
2019-03-25T22:02:51.542Z,0.49
2019-03-25T22:12:51.478Z,0.42
2019-03-25T22:22:51.603Z,0.40
2019-03-25T22:32:51.523Z,0.36
2019-03-25T22:42:51.456Z,0.34
2019-03-25T22:52:51.458Z,0.64
2019-03-25T23:02:51.453Z,0.54
2019-03-25T23:12:51.461Z,0.40
2019-03-25T23:22:51.457Z,0.19
2019-03-25T23:32:51.560Z,0.33
2019-03-25T23:42:51.497Z,0.38
2019-03-25T23:52:51.488Z,0.30
